Terminal Aerodrome Forecast
Issued by NWS Tulsa, OK

Home | Current Version | Previous Version | Text Only | Print | Product List | Glossary On
Versions: 1 2 3 4 5 6 7 8 9 10 11 12 13 14 15 16 17 18 19 20 21 22 23 24
387
FTUS44 KTSA 301120
TAFTUL
TAF
KTUL 301120Z 3012/3112 VRB11KT P6SM VCTS SCT080CB BKN110
     FM301500 VRB06KT P6SM BKN090
     FM302000 21009KT P6SM SCT070 BKN100
     FM310100 VRB04KT P6SM SCT250=

USA.gov is the U.S. government's official web portal to all federal, state and local government web resources and services.